createdAt,value
2019-02-07T00:01:01.528Z,33.50
2019-02-07T00:03:08.429Z,34.37
2019-02-07T00:05:12.607Z,33.77
2019-02-07T00:07:18.237Z,28.70
2019-02-07T00:09:22.235Z,32.70
2019-02-07T00:11:31.697Z,37.43
2019-02-07T00:13:35.716Z,34.00
2019-02-07T00:15:39.766Z,34.07
2019-02-07T00:17:43.755Z,32.10
2019-02-07T00:19:47.670Z,24.07
2019-02-07T00:21:52.557Z,31.53
2019-02-07T00:24:02.823Z,26.27
2019-02-07T00:26:09.713Z,32.33
2019-02-07T00:28:18.527Z,13.80
2019-02-07T00:30:29.543Z,34.87
2019-02-07T00:32:34.062Z,31.40
2019-02-07T00:34:38.433Z,34.07
2019-02-07T00:36:42.444Z,31.87
2019-02-07T00:38:47.064Z,26.93
2019-02-07T00:41:01.603Z,34.13
2019-02-07T00:43:05.638Z,35.17
2019-02-07T00:45:11.775Z,34.60
2019-02-07T00:47:15.762Z,35.23
2019-02-07T00:49:19.985Z,42.00
2019-02-07T00:51:23.982Z,39.07
2019-02-07T00:53:27.941Z,31.13
2019-02-07T00:55:36.596Z,38.17
2019-02-07T00:57:41.587Z,34.70
2019-02-07T00:59:45.596Z,38.43
2019-02-07T01:01:50.036Z,33.00
2019-02-07T01:03:53.994Z,31.30
2019-02-07T01:05:58.002Z,31.03
2019-02-07T01:08:03.467Z,27.53
2019-02-07T01:10:09.200Z,41.37
2019-02-07T01:12:13.743Z,37.63
2019-02-07T01:14:17.791Z,37.50
2019-02-07T01:16:21.869Z,32.70
2019-02-07T01:18:25.892Z,30.63
2019-02-07T01:20:31.971Z,30.50
2019-02-07T01:22:35.931Z,30.53
2019-02-07T01:24:40.066Z,28.67
2019-02-07T01:26:44.504Z,31.73
2019-02-07T01:28:48.496Z,34.63
2019-02-07T01:30:52.597Z,29.23
2019-02-07T01:33:00.864Z,30.73
2019-02-07T01:35:05.084Z,30.57
2019-02-07T01:37:09.024Z,30.23
2019-02-07T01:39:12.971Z,29.37
2019-02-07T01:41:16.942Z,38.97
2019-02-07T01:43:21.012Z,35.00
2019-02-07T01:45:25.162Z,31.70
2019-02-07T01:47:30.282Z,36.13
2019-02-07T01:49:35.324Z,29.93
2019-02-07T01:51:39.209Z,32.97
2019-02-07T01:53:46.931Z,31.70
2019-02-07T01:55:51.195Z,31.40
2019-02-07T01:57:56.128Z,31.13
2019-02-07T02:00:00.221Z,27.60
2019-02-07T02:02:04.115Z,24.90
2019-02-07T02:04:08.210Z,30.87
2019-02-07T02:06:12.853Z,37.03
2019-02-07T02:08:16.867Z,28.80
2019-02-07T02:10:25.940Z,30.67
2019-02-07T02:12:29.887Z,36.37
2019-02-07T02:14:33.827Z,30.03
2019-02-07T02:16:37.839Z,40.03
2019-02-07T02:18:41.813Z,32.97
2019-02-07T02:20:45.719Z,34.33
2019-02-07T02:22:51.809Z,34.87
2019-02-07T02:24:55.836Z,33.27
2019-02-07T02:26:59.897Z,35.07
2019-02-07T02:29:04.802Z,41.30
2019-02-07T02:31:08.766Z,27.63
2019-02-07T02:33:12.850Z,32.60
2019-02-07T02:35:16.648Z,28.47
2019-02-07T02:37:20.845Z,34.70
2019-02-07T02:39:24.806Z,34.77
2019-02-07T02:41:28.895Z,32.23
2019-02-07T02:43:32.868Z,34.63
2019-02-07T02:45:37.969Z,30.93
2019-02-07T02:47:42.074Z,32.27
2019-02-07T02:49:49.221Z,39.83
2019-02-07T02:51:54.318Z,32.00
2019-02-07T02:54:00.748Z,32.87
2019-02-07T02:56:06.224Z,30.50
2019-02-07T02:58:11.613Z,38.53
2019-02-07T03:00:18.785Z,38.53
2019-02-07T03:02:37.072Z,34.70
2019-02-07T03:04:54.256Z,27.50
2019-02-07T03:07:35.067Z,36.53
2019-02-07T03:09:56.377Z,32.33
2019-02-07T03:12:20.279Z,32.37
2019-02-07T03:14:41.951Z,39.77
2019-02-07T03:17:03.367Z,34.63
2019-02-07T03:19:18.295Z,39.57
2019-02-07T03:21:39.970Z,30.10
2019-02-07T03:24:18.116Z,26.17
2019-02-07T03:26:33.070Z,22.80
2019-02-07T03:28:50.229Z,28.07
2019-02-07T03:31:11.530Z,36.03
2019-02-07T03:33:26.366Z,39.70
2019-02-07T03:35:52.147Z,30.23
2019-02-07T03:38:13.767Z,34.57
2019-02-07T03:40:45.834Z,28.40
2019-02-07T03:43:07.588Z,35.97
2019-02-07T03:45:36.093Z,31.23
2019-02-07T03:47:57.754Z,31.97
2019-02-07T03:50:25.783Z,32.70
2019-02-07T03:52:51.943Z,29.27
2019-02-07T03:55:15.559Z,30.77
2019-02-07T03:57:47.657Z,35.63
2019-02-07T04:00:16.026Z,28.17
2019-02-07T04:02:48.043Z,36.57
2019-02-07T04:05:14.124Z,32.60
2019-02-07T04:07:27.629Z,35.40
2019-02-07T04:09:59.221Z,30.03
2019-02-07T04:12:22.463Z,32.73
2019-02-07T04:14:44.115Z,31.27
2019-02-07T04:17:06.254Z,31.80
2019-02-07T04:19:26.705Z,31.90
2019-02-07T04:21:58.451Z,29.73
2019-02-07T04:24:39.517Z,35.63
2019-02-07T04:27:05.505Z,30.73
2019-02-07T04:29:37.386Z,30.83
2019-02-07T04:32:00.409Z,29.37
2019-02-07T04:34:37.539Z,34.13
2019-02-07T04:37:09.688Z,27.63
2019-02-07T04:39:25.722Z,37.80
2019-02-07T04:41:47.354Z,33.93
2019-02-07T04:44:19.159Z,32.60
2019-02-07T04:46:40.603Z,34.70
2019-02-07T04:48:57.676Z,28.67
2019-02-07T04:51:19.280Z,41.70
2019-02-07T04:53:35.370Z,36.37
2019-02-07T04:56:00.688Z,35.80
2019-02-07T04:58:22.662Z,29.77
2019-02-07T05:00:58.495Z,36.90
2019-02-07T05:03:20.298Z,31.70
2019-02-07T05:05:47.027Z,28.87
2019-02-07T05:08:18.880Z,32.50
2019-02-07T05:10:40.511Z,35.07
2019-02-07T05:13:02.086Z,33.50
2019-02-07T05:15:30.676Z,30.80
2019-02-07T05:18:00.089Z,37.23
2019-02-07T05:20:26.145Z,29.63
2019-02-07T05:22:41.640Z,29.23
2019-02-07T05:25:12.129Z,33.67
2019-02-07T05:27:37.684Z,29.10
2019-02-07T05:29:59.049Z,38.17
2019-02-07T05:32:13.096Z,28.77
2019-02-07T05:34:37.118Z,29.30
2019-02-07T05:36:53.116Z,31.27
2019-02-07T05:39:21.922Z,32.87
2019-02-07T05:41:40.677Z,31.10
2019-02-07T05:43:54.208Z,35.77
2019-02-07T05:46:08.952Z,35.17
2019-02-07T05:48:45.151Z,32.53
2019-02-07T05:51:09.723Z,37.97
2019-02-07T05:53:31.134Z,38.47
2019-02-07T05:56:12.476Z,36.30
2019-02-07T05:58:24.605Z,33.67
2019-02-07T06:00:47.665Z,43.20
2019-02-07T06:03:16.993Z,38.57
2019-02-07T06:05:38.625Z,37.83
2019-02-07T06:08:00.729Z,38.03
2019-02-07T06:10:43.931Z,41.23
2019-02-07T06:13:24.948Z,33.27
2019-02-07T06:15:47.697Z,46.27
2019-02-07T06:18:22.691Z,40.53
2019-02-07T06:20:48.487Z,40.83
2019-02-07T06:23:14.090Z,44.23
2019-02-07T06:25:35.660Z,35.27
2019-02-07T06:27:51.041Z,35.87
2019-02-07T06:30:08.785Z,38.73
2019-02-07T06:32:21.521Z,31.33
2019-02-07T06:34:42.740Z,40.07
2019-02-07T06:37:04.570Z,36.17
2019-02-07T06:39:28.739Z,44.50
2019-02-07T06:42:03.701Z,38.93
2019-02-07T06:44:28.989Z,39.30
2019-02-07T06:46:52.603Z,48.57
2019-02-07T06:49:15.387Z,46.37
2019-02-07T06:51:39.687Z,45.40
2019-02-07T06:54:01.515Z,39.70
2019-02-07T06:56:23.153Z,38.10
2019-02-07T06:58:44.104Z,50.60
2019-02-07T07:01:13.301Z,46.47
2019-02-07T07:03:28.076Z,42.27
2019-02-07T07:05:51.864Z,48.63
2019-02-07T07:08:17.837Z,42.07
2019-02-07T07:10:43.807Z,44.23
2019-02-07T07:13:15.622Z,52.87
2019-02-07T07:15:47.513Z,41.63
2019-02-07T07:18:16.395Z,41.13
2019-02-07T07:20:59.481Z,45.40
2019-02-07T07:23:16.447Z,43.60
2019-02-07T07:25:38.030Z,46.27
2019-02-07T07:28:03.994Z,45.77
2019-02-07T07:30:33.577Z,46.37
2019-02-07T07:33:11.231Z,44.00
2019-02-07T07:35:40.609Z,54.20
2019-02-07T07:38:02.635Z,39.37
2019-02-07T07:40:28.685Z,41.87
2019-02-07T07:42:50.361Z,41.83
2019-02-07T07:45:15.727Z,50.07
2019-02-07T07:47:36.047Z,48.30
2019-02-07T07:49:53.593Z,49.57
2019-02-07T07:52:21.452Z,39.10
2019-02-07T07:55:00.421Z,46.57
2019-02-07T07:57:26.155Z,38.53
2019-02-07T07:59:49.166Z,40.73
2019-02-07T08:02:12.234Z,38.90
2019-02-07T08:04:35.248Z,30.13
2019-02-07T08:07:02.854Z,42.90
2019-02-07T08:09:26.567Z,42.90
2019-02-07T08:11:49.446Z,39.40
2019-02-07T08:14:10.800Z,28.07
2019-02-07T08:16:35.971Z,42.57
2019-02-07T08:19:04.964Z,37.30
2019-02-07T08:21:33.953Z,40.47
2019-02-07T08:23:56.406Z,32.60
2019-02-07T08:26:17.750Z,45.53
2019-02-07T08:28:42.019Z,46.07
2019-02-07T08:30:55.290Z,39.33
2019-02-07T08:33:19.139Z,41.97
2019-02-07T08:35:41.992Z,42.63
2019-02-07T08:38:11.378Z,49.93
2019-02-07T08:40:32.965Z,38.50
2019-02-07T08:42:58.798Z,38.27
2019-02-07T08:45:27.445Z,38.50
2019-02-07T08:47:58.386Z,42.00
2019-02-07T08:50:16.297Z,40.70
2019-02-07T08:52:39.310Z,42.03
2019-02-07T08:55:02.460Z,45.03
2019-02-07T08:57:26.695Z,36.50
2019-02-07T08:59:54.187Z,39.40
2019-02-07T09:02:17.205Z,47.47
2019-02-07T09:04:34.760Z,43.07
2019-02-07T09:07:12.871Z,41.83
2019-02-07T09:09:34.949Z,45.03
2019-02-07T09:12:12.452Z,49.07
2019-02-07T09:14:33.274Z,37.53
2019-02-07T09:16:55.217Z,43.93
2019-02-07T09:19:20.558Z,48.30
2019-02-07T09:21:35.616Z,25.40
2019-02-07T09:24:10.784Z,35.83
2019-02-07T09:26:39.852Z,39.80
2019-02-07T09:28:55.004Z,42.20
2019-02-07T09:31:17.215Z,39.00
2019-02-07T09:33:38.960Z,39.10
2019-02-07T09:36:05.352Z,45.30
2019-02-07T09:38:40.777Z,42.27
2019-02-07T09:41:03.864Z,41.90
2019-02-07T09:43:25.584Z,39.90
2019-02-07T09:45:49.446Z,40.57
2019-02-07T09:48:21.325Z,48.00
2019-02-07T09:50:34.686Z,34.23
2019-02-07T09:52:50.265Z,40.43
2019-02-07T09:55:27.731Z,36.60
2019-02-07T09:57:42.175Z,34.80
2019-02-07T10:00:12.577Z,41.73
2019-02-07T10:02:22.404Z,35.20
2019-02-07T10:04:43.653Z,34.93
2019-02-07T10:07:01.753Z,37.93
2019-02-07T10:09:36.938Z,35.53
2019-02-07T10:11:58.785Z,31.43
2019-02-07T10:14:34.217Z,34.03
2019-02-07T10:17:06.108Z,39.23
2019-02-07T10:19:34.861Z,46.27
2019-02-07T10:22:03.807Z,39.20
2019-02-07T10:24:25.474Z,32.50
2019-02-07T10:26:47.009Z,30.73
2019-02-07T10:29:08.645Z,32.50
2019-02-07T10:31:30.721Z,42.77
2019-02-07T10:33:52.202Z,39.60
2019-02-07T10:36:24.129Z,37.87
2019-02-07T10:38:45.619Z,34.00
2019-02-07T10:41:11.543Z,42.63
2019-02-07T10:43:44.902Z,34.50
2019-02-07T10:46:12.373Z,36.40
2019-02-07T10:48:44.602Z,38.17
2019-02-07T10:51:07.037Z,31.57
2019-02-07T10:53:32.566Z,37.83
2019-02-07T10:55:56.587Z,37.87
2019-02-07T10:58:22.312Z,32.53
2019-02-07T11:00:45.378Z,23.63
2019-02-07T11:03:26.489Z,41.27
2019-02-07T11:05:39.474Z,40.57
2019-02-07T11:08:02.157Z,42.17
2019-02-07T11:10:27.779Z,36.13
2019-02-07T11:12:49.640Z,39.53
2019-02-07T11:15:21.502Z,31.30
2019-02-07T11:17:53.820Z,32.37
2019-02-07T11:20:22.927Z,38.63
2019-02-07T11:22:36.361Z,42.83
2019-02-07T11:24:57.807Z,40.67
2019-02-07T11:27:26.737Z,42.00
2019-02-07T11:29:48.998Z,40.90
2019-02-07T11:32:18.238Z,44.43
2019-02-07T11:34:41.116Z,39.97
2019-02-07T11:37:03.182Z,43.53
2019-02-07T11:39:40.699Z,41.90
2019-02-07T11:42:09.581Z,42.50
2019-02-07T11:44:20.695Z,40.43
2019-02-07T11:46:43.823Z,41.83
2019-02-07T11:49:09.838Z,35.43
2019-02-07T11:51:32.161Z,41.63
2019-02-07T11:54:07.556Z,38.63
2019-02-07T11:56:37.878Z,37.93
2019-02-07T11:59:18.803Z,39.60
2019-02-07T12:01:35.051Z,36.87
2019-02-07T12:04:05.150Z,35.97
2019-02-07T12:06:26.568Z,37.50
2019-02-07T12:08:42.815Z,39.27
2019-02-07T12:11:04.467Z,36.17
2019-02-07T12:13:18.286Z,47.17
2019-02-07T12:15:33.738Z,49.90
2019-02-07T12:18:10.173Z,37.33
2019-02-07T12:20:51.317Z,49.77
2019-02-07T12:23:12.568Z,39.50
2019-02-07T12:25:28.346Z,40.47
2019-02-07T12:27:51.334Z,45.87
2019-02-07T12:30:17.377Z,34.93
2019-02-07T12:32:38.710Z,34.43
2019-02-07T12:34:51.740Z,43.27
2019-02-07T12:37:23.970Z,44.33
2019-02-07T12:39:49.967Z,43.07
2019-02-07T12:42:05.513Z,50.10
2019-02-07T12:44:29.725Z,38.40
2019-02-07T12:47:11.186Z,35.97
2019-02-07T12:49:33.503Z,36.57
2019-02-07T12:52:05.262Z,45.43
2019-02-07T12:54:40.210Z,42.03
2019-02-07T12:57:00.964Z,36.93
2019-02-07T12:59:33.038Z,44.80
2019-02-07T13:01:59.036Z,41.90
2019-02-07T13:04:17.747Z,38.83
2019-02-07T13:06:38.564Z,48.83
2019-02-07T13:08:56.243Z,38.43
2019-02-07T13:11:25.248Z,46.07
2019-02-07T13:13:48.832Z,47.03
2019-02-07T13:16:22.090Z,37.23
2019-02-07T13:18:42.275Z,49.07
2019-02-07T13:21:03.627Z,42.97
2019-02-07T13:23:26.592Z,45.90
2019-02-07T13:25:48.512Z,40.13
2019-02-07T13:28:10.042Z,39.60
2019-02-07T13:30:40.041Z,45.00
2019-02-07T13:32:50.769Z,44.13
2019-02-07T13:35:19.966Z,40.53
2019-02-07T13:37:45.693Z,39.17
2019-02-07T13:40:07.372Z,42.17
2019-02-07T13:42:19.312Z,47.83
2019-02-07T13:44:40.852Z,43.03
2019-02-07T13:47:12.649Z,51.13
2019-02-07T13:49:51.679Z,42.20
2019-02-07T13:52:08.070Z,48.10
2019-02-07T13:54:35.960Z,48.57
2019-02-07T13:57:07.778Z,55.10
2019-02-07T13:59:46.072Z,53.27
2019-02-07T14:02:13.636Z,57.13
2019-02-07T14:04:43.688Z,49.07
2019-02-07T14:07:05.811Z,55.17
2019-02-07T14:09:27.403Z,45.73
2019-02-07T14:11:57.779Z,55.10
2019-02-07T14:14:12.223Z,55.30
2019-02-07T14:16:35.120Z,53.67
2019-02-07T14:19:07.456Z,48.27
2019-02-07T14:21:20.745Z,49.00
2019-02-07T14:23:49.331Z,52.20
2019-02-07T14:26:07.967Z,49.13
2019-02-07T14:28:38.702Z,49.77
2019-02-07T14:31:06.281Z,55.17
2019-02-07T14:33:28.180Z,48.93
2019-02-07T14:35:42.269Z,58.00
2019-02-07T14:38:03.969Z,57.90
2019-02-07T14:40:29.372Z,48.03
2019-02-07T14:42:58.476Z,57.20
2019-02-07T14:45:20.462Z,51.90
2019-02-07T14:47:26.717Z,65.30
2019-02-07T14:49:33.036Z,48.33
2019-02-07T14:51:36.993Z,50.57
2019-02-07T14:53:42.219Z,60.20
2019-02-07T14:55:46.295Z,56.17
2019-02-07T14:57:50.592Z,58.20
2019-02-07T14:59:59.421Z,50.80
2019-02-07T15:02:03.547Z,52.83
2019-02-07T15:04:10.290Z,55.83
2019-02-07T15:06:14.277Z,58.73
2019-02-07T15:08:18.313Z,52.53
2019-02-07T15:10:22.256Z,54.63
2019-02-07T15:12:26.359Z,52.03
2019-02-07T15:14:30.644Z,66.17
2019-02-07T15:16:34.758Z,61.63
2019-02-07T15:18:38.862Z,57.93
2019-02-07T15:20:43.009Z,61.27
2019-02-07T15:22:48.081Z,56.77
2019-02-07T15:24:52.199Z,56.67
2019-02-07T15:26:56.010Z,56.57
2019-02-07T15:29:00.008Z,54.17
2019-02-07T15:31:05.670Z,61.83
2019-02-07T15:33:10.083Z,54.97
2019-02-07T15:35:17.949Z,60.63
2019-02-07T15:37:23.992Z,55.53
2019-02-07T15:39:28.107Z,59.47
2019-02-07T15:41:32.082Z,66.83
2019-02-07T15:43:36.076Z,61.57
2019-02-07T15:45:40.828Z,55.13
2019-02-07T15:47:44.879Z,65.27
2019-02-07T15:49:49.004Z,54.33
2019-02-07T15:51:52.904Z,57.47
2019-02-07T15:53:57.012Z,56.47
2019-02-07T15:56:01.500Z,60.60
2019-02-07T15:58:05.613Z,63.50
2019-02-07T16:00:29.763Z,54.10
2019-02-07T16:02:40.401Z,61.07
2019-02-07T16:04:46.171Z,49.77
2019-02-07T16:06:50.171Z,57.00
2019-02-07T16:08:54.279Z,60.10
2019-02-07T16:10:59.388Z,58.00
2019-02-07T16:13:03.463Z,56.57
2019-02-07T16:15:11.020Z,59.60
2019-02-07T16:17:15.437Z,65.27
2019-02-07T16:19:19.607Z,54.03
2019-02-07T16:21:23.627Z,59.13
2019-02-07T16:23:31.003Z,64.23
2019-02-07T16:25:35.022Z,62.97
2019-02-07T16:27:39.049Z,69.87
2019-02-07T16:29:43.143Z,59.43
2019-02-07T16:31:47.160Z,64.97
2019-02-07T16:33:51.356Z,61.17
2019-02-07T16:35:55.497Z,64.20
2019-02-07T16:37:59.684Z,54.57
2019-02-07T16:40:05.904Z,49.97
2019-02-07T16:42:10.038Z,67.70
2019-02-07T16:44:14.147Z,67.43
2019-02-07T16:46:18.150Z,66.07
2019-02-07T16:48:22.196Z,61.50
2019-02-07T16:50:26.315Z,61.60
2019-02-07T16:52:30.572Z,64.13
2019-02-07T16:54:34.570Z,61.37
2019-02-07T16:56:39.601Z,63.30
2019-02-07T16:58:43.787Z,58.57
2019-02-07T17:00:48.808Z,60.23
2019-02-07T17:02:53.080Z,58.03
2019-02-07T17:04:57.791Z,59.77
2019-02-07T17:07:02.111Z,58.90
2019-02-07T17:09:16.136Z,67.57
2019-02-07T17:11:20.215Z,66.67
2019-02-07T17:13:24.251Z,65.20
2019-02-07T17:15:28.404Z,63.57
2019-02-07T17:17:32.653Z,57.97
2019-02-07T17:19:36.710Z,59.27
2019-02-07T17:21:40.702Z,56.23
2019-02-07T17:23:45.280Z,64.80
2019-02-07T17:25:49.552Z,57.30
2019-02-07T17:27:56.416Z,60.87
2019-02-07T17:30:00.414Z,64.37
2019-02-07T17:32:04.894Z,64.43
2019-02-07T17:34:09.127Z,58.60
2019-02-07T17:36:13.228Z,59.90
2019-02-07T17:38:17.495Z,58.20
2019-02-07T17:40:21.919Z,55.83
2019-02-07T17:42:27.111Z,60.57
2019-02-07T17:44:31.625Z,55.33
2019-02-07T17:46:35.820Z,63.10
2019-02-07T17:48:40.043Z,54.43
2019-02-07T17:50:44.409Z,60.77
2019-02-07T17:52:50.427Z,55.10
2019-02-07T17:54:54.643Z,49.97
2019-02-07T17:56:58.801Z,58.03
2019-02-07T17:59:03.171Z,60.00
2019-02-07T18:01:09.733Z,52.27
2019-02-07T18:03:13.877Z,59.83
2019-02-07T18:05:17.974Z,54.87
2019-02-07T18:07:22.217Z,57.30
2019-02-07T18:09:26.586Z,60.83
2019-02-07T18:11:31.453Z,52.10
2019-02-07T18:13:35.600Z,55.77
2019-02-07T18:15:39.881Z,50.37
2019-02-07T18:17:44.143Z,62.27
2019-02-07T18:19:48.505Z,57.83
2019-02-07T18:21:53.879Z,59.43
2019-02-07T18:23:58.165Z,55.67
2019-02-07T18:26:02.228Z,51.57
2019-02-07T18:28:06.326Z,46.70
2019-02-07T18:30:17.876Z,59.47
2019-02-07T18:32:21.986Z,48.40
2019-02-07T18:34:26.393Z,55.33
2019-02-07T18:36:33.441Z,56.13
2019-02-07T18:38:37.500Z,57.10
2019-02-07T18:40:41.584Z,61.53
2019-02-07T18:42:45.629Z,58.70
2019-02-07T18:44:49.803Z,52.60
2019-02-07T18:46:53.921Z,60.97
2019-02-07T18:48:59.100Z,49.87
2019-02-07T18:51:03.237Z,56.97
2019-02-07T18:53:08.409Z,60.00
2019-02-07T18:55:12.871Z,51.40
2019-02-07T18:57:16.972Z,56.37
2019-02-07T18:59:21.280Z,61.00
2019-02-07T19:01:25.394Z,54.20
2019-02-07T19:03:29.527Z,59.10
2019-02-07T19:05:36.997Z,53.90
2019-02-07T19:07:41.321Z,53.57
2019-02-07T19:09:46.373Z,48.87
2019-02-07T19:11:54.120Z,57.20
2019-02-07T19:14:00.882Z,55.53
2019-02-07T19:16:14.907Z,54.57
2019-02-07T19:18:19.570Z,54.10
2019-02-07T19:20:24.060Z,55.30
2019-02-07T19:22:28.690Z,51.13
2019-02-07T19:24:33.115Z,58.87
2019-02-07T19:26:38.843Z,51.87
2019-02-07T19:28:43.619Z,52.63
2019-02-07T19:30:47.813Z,53.43
2019-02-07T19:32:51.952Z,50.93
2019-02-07T19:35:06.367Z,59.97
2019-02-07T19:37:10.513Z,53.37
2019-02-07T19:39:14.678Z,56.77
2019-02-07T19:41:18.740Z,55.97
2019-02-07T19:43:22.854Z,53.50
2019-02-07T19:45:26.850Z,54.80
2019-02-07T19:47:30.915Z,59.93
2019-02-07T19:49:35.387Z,54.30
2019-02-07T19:51:39.545Z,56.37
2019-02-07T19:53:43.593Z,52.57
2019-02-07T19:55:47.824Z,53.43
2019-02-07T19:57:52.768Z,54.50
2019-02-07T19:59:57.053Z,55.27
2019-02-07T20:02:01.274Z,55.27
2019-02-07T20:04:05.390Z,54.07
2019-02-07T20:06:09.726Z,51.77
2019-02-07T20:08:14.053Z,58.07
2019-02-07T20:10:19.780Z,51.17
2019-02-07T20:12:23.840Z,60.80
2019-02-07T20:14:27.859Z,59.70
2019-02-07T20:16:31.787Z,54.17
2019-02-07T20:18:36.028Z,51.97
2019-02-07T20:20:40.291Z,57.10
2019-02-07T20:22:44.475Z,55.00
2019-02-07T20:24:48.535Z,59.17
2019-02-07T20:26:55.549Z,61.60
2019-02-07T20:28:59.562Z,50.50
2019-02-07T20:31:04.138Z,53.83
2019-02-07T20:33:12.454Z,60.00
2019-02-07T20:35:16.851Z,51.33
2019-02-07T20:37:21.640Z,56.77
2019-02-07T20:39:27.100Z,53.17
2019-02-07T20:41:32.015Z,55.57
2019-02-07T20:43:36.661Z,50.60
2019-02-07T20:45:40.712Z,53.57
2019-02-07T20:47:45.045Z,55.03
2019-02-07T20:49:49.208Z,44.00
2019-02-07T20:51:53.457Z,51.60
2019-02-07T20:53:57.634Z,53.73
2019-02-07T20:56:01.752Z,48.57
2019-02-07T20:58:05.865Z,40.17
2019-02-07T21:00:17.338Z,49.00
2019-02-07T21:02:21.675Z,38.10
2019-02-07T21:04:26.135Z,47.33
2019-02-07T21:06:30.345Z,52.83
2019-02-07T21:08:34.513Z,57.27
2019-02-07T21:10:38.784Z,43.67
2019-02-07T21:12:43.157Z,51.17
2019-02-07T21:14:47.498Z,53.57
2019-02-07T21:16:51.902Z,52.60
2019-02-07T21:18:56.351Z,49.03
2019-02-07T21:21:18.876Z,49.40
2019-02-07T21:23:29.921Z,52.47
2019-02-07T21:25:43.386Z,49.33
2019-02-07T21:27:48.047Z,47.17
2019-02-07T21:29:52.323Z,46.43
2019-02-07T21:31:56.948Z,48.47
2019-02-07T21:34:01.227Z,54.53
2019-02-07T21:36:06.301Z,49.00
2019-02-07T21:38:10.759Z,47.37
2019-02-07T21:40:21.227Z,50.63
2019-02-07T21:42:25.565Z,52.53
2019-02-07T21:44:29.790Z,45.13
2019-02-07T21:46:33.912Z,44.60
2019-02-07T21:48:38.383Z,47.40
2019-02-07T21:50:45.273Z,47.20
2019-02-07T21:52:51.676Z,46.77
2019-02-07T21:54:55.769Z,50.33
2019-02-07T21:56:59.874Z,48.13
2019-02-07T21:59:04.076Z,47.30
2019-02-07T22:01:08.176Z,49.30
2019-02-07T22:03:13.642Z,50.60
2019-02-07T22:05:17.715Z,46.70
2019-02-07T22:07:21.778Z,46.40
2019-02-07T22:09:26.044Z,48.13
2019-02-07T22:11:30.231Z,46.60
2019-02-07T22:13:34.722Z,46.00
2019-02-07T22:15:38.674Z,49.83
2019-02-07T22:17:42.737Z,51.33
2019-02-07T22:19:46.823Z,45.10
2019-02-07T22:21:51.046Z,50.50
2019-02-07T22:23:55.446Z,41.40
2019-02-07T22:25:59.458Z,43.73
2019-02-07T22:28:06.059Z,51.97
2019-02-07T22:30:13.587Z,47.67
2019-02-07T22:32:18.071Z,45.50
2019-02-07T22:34:22.150Z,44.50
2019-02-07T22:36:27.256Z,40.07
2019-02-07T22:38:31.844Z,45.10
2019-02-07T22:40:35.831Z,45.23
2019-02-07T22:42:47.542Z,49.23
2019-02-07T22:44:48.570Z,44.37
2019-02-07T22:46:52.697Z,49.53
2019-02-07T22:48:57.085Z,44.93
2019-02-07T22:51:01.221Z,41.53
2019-02-07T22:53:05.552Z,43.40
2019-02-07T22:55:09.746Z,40.43
2019-02-07T22:57:14.852Z,45.37
2019-02-07T22:59:18.896Z,47.57
2019-02-07T23:01:37.326Z,44.33
2019-02-07T23:03:43.609Z,40.80
2019-02-07T23:05:48.907Z,49.03
2019-02-07T23:07:53.292Z,40.50
2019-02-07T23:09:57.633Z,45.00
2019-02-07T23:12:01.809Z,41.53
2019-02-07T23:14:08.053Z,48.87
2019-02-07T23:16:12.048Z,43.90
2019-02-07T23:18:19.357Z,49.43
2019-02-07T23:20:23.415Z,46.20
2019-02-07T23:22:29.055Z,42.47
2019-02-07T23:24:33.135Z,45.23
2019-02-07T23:26:37.451Z,46.63
2019-02-07T23:28:42.018Z,44.57
2019-02-07T23:30:48.971Z,49.03
2019-02-07T23:32:52.946Z,43.33
2019-02-07T23:34:57.601Z,37.80
2019-02-07T23:37:01.754Z,41.63
2019-02-07T23:39:11.805Z,43.20
2019-02-07T23:41:16.258Z,39.03
2019-02-07T23:43:20.228Z,41.37
2019-02-07T23:45:24.629Z,46.00
2019-02-07T23:47:28.662Z,42.47
2019-02-07T23:49:33.169Z,40.23
2019-02-07T23:51:37.133Z,39.63
2019-02-07T23:53:41.165Z,42.63
2019-02-07T23:55:45.250Z,43.87
2019-02-07T23:57:49.348Z,39.63
2019-02-07T23:59:53.543Z,38.43
